sensor_id;sensor_type;location;lat;lon;timestamp;pressure;altitude;pressure_sealevel;temperature;humidity
56992;BME280;42885;49.754;18.636;2023-12-20T00:01:27;97851.87;;;11.14;41.21
56992;BME280;42885;49.754;18.636;2023-12-20T00:03:59;97853.39;;;10.98;42.31
56992;BME280;42885;49.754;18.636;2023-12-20T00:06:30;97852.72;;;10.76;42.56
56992;BME280;42885;49.754;18.636;2023-12-20T00:09:01;97849.73;;;10.62;42.82
56992;BME280;42885;49.754;18.636;2023-12-20T00:11:33;97848.89;;;10.74;42.62
56992;BME280;42885;49.754;18.636;2023-12-20T00:14:04;97843.97;;;10.83;42.13
56992;BME280;42885;49.754;18.636;2023-12-20T00:16:35;97846.66;;;10.76;42.45
56992;BME280;42885;49.754;18.636;2023-12-20T00:19:06;97839.36;;;10.73;42.45
56992;BME280;42885;49.754;18.636;2023-12-20T00:21:37;97840.98;;;10.95;42.06
56992;BME280;42885;49.754;18.636;2023-12-20T00:24:09;97837.28;;;10.79;42.34
56992;BME280;42885;49.754;18.636;2023-12-20T00:26:40;97839.05;;;10.78;42.68
56992;BME280;42885;49.754;18.636;2023-12-20T00:29:12;97829.70;;;10.68;42.90
56992;BME280;42885;49.754;18.636;2023-12-20T00:31:43;97828.89;;;10.73;42.82
56992;BME280;42885;49.754;18.636;2023-12-20T00:34:15;97832.62;;;10.51;43.04
56992;BME280;42885;49.754;18.636;2023-12-20T00:36:46;97828.88;;;10.48;42.89
56992;BME280;42885;49.754;18.636;2023-12-20T00:39:17;97829.79;;;10.54;43.20
56992;BME280;42885;49.754;18.636;2023-12-20T00:41:48;97821.67;;;10.51;42.89
56992;BME280;42885;49.754;18.636;2023-12-20T00:44:19;97816.70;;;10.54;43.15
56992;BME280;42885;49.754;18.636;2023-12-20T00:46:50;97813.05;;;10.69;42.89
56992;BME280;42885;49.754;18.636;2023-12-20T00:49:21;97803.08;;;10.74;42.62
56992;BME280;42885;49.754;18.636;2023-12-20T00:51:53;97794.30;;;10.50;43.30
56992;BME280;42885;49.754;18.636;2023-12-20T00:54:24;97804.17;;;10.39;43.56
56992;BME280;42885;49.754;18.636;2023-12-20T00:56:55;97789.88;;;10.37;43.59
56992;BME280;42885;49.754;18.636;2023-12-20T00:59:26;97791.77;;;10.35;43.77
56992;BME280;42885;49.754;18.636;2023-12-20T01:01:57;97787.66;;;10.31;44.20
56992;BME280;42885;49.754;18.636;2023-12-20T01:04:29;97779.86;;;10.24;44.48
56992;BME280;42885;49.754;18.636;2023-12-20T01:07:00;97773.58;;;10.13;44.69
56992;BME280;42885;49.754;18.636;2023-12-20T01:09:31;97770.97;;;10.26;44.61
56992;BME280;42885;49.754;18.636;2023-12-20T01:12:03;97775.53;;;10.30;44.56
56992;BME280;42885;49.754;18.636;2023-12-20T01:14:34;97771.14;;;10.17;45.16
56992;BME280;42885;49.754;18.636;2023-12-20T01:17:05;97770.84;;;10.02;45.23
56992;BME280;42885;49.754;18.636;2023-12-20T01:19:37;97763.83;;;10.02;45.37
56992;BME280;42885;49.754;18.636;2023-12-20T01:22:08;97763.19;;;9.99;45.42
56992;BME280;42885;49.754;18.636;2023-12-20T01:24:39;97761.55;;;9.90;45.62
56992;BME280;42885;49.754;18.636;2023-12-20T01:27:11;97764.50;;;9.78;45.96
56992;BME280;42885;49.754;18.636;2023-12-20T01:29:42;97758.82;;;9.79;46.03
56992;BME280;42885;49.754;18.636;2023-12-20T01:32:13;97758.06;;;9.84;46.26
56992;BME280;42885;49.754;18.636;2023-12-20T01:34:44;97759.87;;;9.89;45.75
56992;BME280;42885;49.754;18.636;2023-12-20T01:37:15;97751.34;;;9.80;46.02
56992;BME280;42885;49.754;18.636;2023-12-20T01:39:46;97754.56;;;9.91;46.05
56992;BME280;42885;49.754;18.636;2023-12-20T01:42:18;97749.79;;;9.90;45.84
56992;BME280;42885;49.754;18.636;2023-12-20T01:44:49;97754.26;;;9.75;46.21
56992;BME280;42885;49.754;18.636;2023-12-20T01:47:20;97743.77;;;9.62;46.77
56992;BME280;42885;49.754;18.636;2023-12-20T01:49:51;97741.07;;;9.64;46.97
56992;BME280;42885;49.754;18.636;2023-12-20T01:52:25;97743.13;;;9.59;47.42
56992;BME280;42885;49.754;18.636;2023-12-20T01:54:57;97736.86;;;9.41;47.64
56992;BME280;42885;49.754;18.636;2023-12-20T01:57:31;97719.70;;;9.37;47.77
56992;BME280;42885;49.754;18.636;2023-12-20T02:00:03;97716.86;;;9.27;47.85
56992;BME280;42885;49.754;18.636;2023-12-20T02:02:34;97698.00;;;9.29;47.50
56992;BME280;42885;49.754;18.636;2023-12-20T02:05:09;97704.63;;;9.28;47.75
56992;BME280;42885;49.754;18.636;2023-12-20T02:07:41;97687.56;;;9.29;47.56
56992;BME280;42885;49.754;18.636;2023-12-20T02:10:12;97693.77;;;9.41;47.24
56992;BME280;42885;49.754;18.636;2023-12-20T02:12:43;97697.14;;;9.56;46.85
56992;BME280;42885;49.754;18.636;2023-12-20T02:15:16;97686.30;;;9.42;46.74
56992;BME280;42885;49.754;18.636;2023-12-20T02:17:47;97686.75;;;9.42;46.59
56992;BME280;42885;49.754;18.636;2023-12-20T02:20:19;97684.72;;;9.40;46.39
56992;BME280;42885;49.754;18.636;2023-12-20T02:22:50;97688.59;;;9.27;46.77
56992;BME280;42885;49.754;18.636;2023-12-20T02:25:21;97681.61;;;9.27;46.72
56992;BME280;42885;49.754;18.636;2023-12-20T02:27:52;97693.64;;;9.30;46.78
56992;BME280;42885;49.754;18.636;2023-12-20T02:30:23;97689.57;;;9.11;47.33
56992;BME280;42885;49.754;18.636;2023-12-20T02:32:54;97686.69;;;9.08;47.55
56992;BME280;42885;49.754;18.636;2023-12-20T02:35:26;97676.16;;;9.10;47.82
56992;BME280;42885;49.754;18.636;2023-12-20T02:37:57;97676.00;;;9.06;48.00
56992;BME280;42885;49.754;18.636;2023-12-20T02:40:28;97667.80;;;9.05;48.10
56992;BME280;42885;49.754;18.636;2023-12-20T02:43:00;97650.69;;;9.14;47.94
56992;BME280;42885;49.754;18.636;2023-12-20T02:45:31;97649.58;;;9.18;47.49
56992;BME280;42885;49.754;18.636;2023-12-20T02:48:02;97667.38;;;9.39;47.55
56992;BME280;42885;49.754;18.636;2023-12-20T02:50:33;97664.98;;;9.35;47.29
56992;BME280;42885;49.754;18.636;2023-12-20T02:53:04;97667.83;;;9.58;46.98
56992;BME280;42885;49.754;18.636;2023-12-20T02:55:35;97664.00;;;9.64;47.04
56992;BME280;42885;49.754;18.636;2023-12-20T02:58:06;97657.53;;;9.49;46.95
56992;BME280;42885;49.754;18.636;2023-12-20T03:00:37;97652.33;;;9.62;46.68
56992;BME280;42885;49.754;18.636;2023-12-20T03:03:08;97658.50;;;9.61;47.17
56992;BME280;42885;49.754;18.636;2023-12-20T03:05:39;97656.80;;;9.81;46.68
56992;BME280;42885;49.754;18.636;2023-12-20T03:08:14;97659.66;;;9.83;46.69
56992;BME280;42885;49.754;18.636;2023-12-20T03:10:45;97651.73;;;9.85;47.17
56992;BME280;42885;49.754;18.636;2023-12-20T03:13:16;97655.02;;;9.94;46.55
56992;BME280;42885;49.754;18.636;2023-12-20T03:15:47;97655.09;;;10.13;46.19
56992;BME280;42885;49.754;18.636;2023-12-20T03:18:18;97639.49;;;10.24;46.02
56992;BME280;42885;49.754;18.636;2023-12-20T03:20:51;97641.22;;;10.05;46.87
56992;BME280;42885;49.754;18.636;2023-12-20T03:23:22;97654.88;;;10.03;46.34
56992;BME280;42885;49.754;18.636;2023-12-20T03:25:54;97650.59;;;10.15;45.67
56992;BME280;42885;49.754;18.636;2023-12-20T03:28:25;97650.17;;;10.21;45.70
56992;BME280;42885;49.754;18.636;2023-12-20T03:30:57;97647.02;;;10.29;46.13
56992;BME280;42885;49.754;18.636;2023-12-20T03:33:29;97639.44;;;10.31;45.58
56992;BME280;42885;49.754;18.636;2023-12-20T03:36:01;97644.86;;;10.28;46.02
56992;BME280;42885;49.754;18.636;2023-12-20T03:38:32;97648.30;;;10.10;45.85
56992;BME280;42885;49.754;18.636;2023-12-20T03:41:04;97649.74;;;10.01;46.13
56992;BME280;42885;49.754;18.636;2023-12-20T03:43:35;97650.06;;;9.97;46.67
56992;BME280;42885;49.754;18.636;2023-12-20T03:46:08;97652.05;;;10.06;46.57
56992;BME280;42885;49.754;18.636;2023-12-20T03:48:39;97650.55;;;10.09;46.51
56992;BME280;42885;49.754;18.636;2023-12-20T03:51:10;97644.81;;;10.23;47.51
56992;BME280;42885;49.754;18.636;2023-12-20T03:53:41;97654.56;;;10.08;48.57
56992;BME280;42885;49.754;18.636;2023-12-20T03:56:12;97654.47;;;10.09;48.10
56992;BME280;42885;49.754;18.636;2023-12-20T03:58:43;97658.27;;;9.98;50.57
56992;BME280;42885;49.754;18.636;2023-12-20T04:01:14;97660.37;;;9.93;53.76
56992;BME280;42885;49.754;18.636;2023-12-20T04:03:45;97662.55;;;9.86;55.41
56992;BME280;42885;49.754;18.636;2023-12-20T04:06:19;97669.19;;;9.71;53.70
56992;BME280;42885;49.754;18.636;2023-12-20T04:08:50;97671.34;;;9.64;53.85
56992;BME280;42885;49.754;18.636;2023-12-20T04:11:22;97668.89;;;9.56;55.02
56992;BME280;42885;49.754;18.636;2023-12-20T04:13:53;97681.01;;;9.36;57.07
56992;BME280;42885;49.754;18.636;2023-12-20T04:16:24;97672.49;;;9.20;59.09
56992;BME280;42885;49.754;18.636;2023-12-20T04:18:55;97667.09;;;9.16;62.34
56992;BME280;42885;49.754;18.636;2023-12-20T04:21:27;97660.12;;;9.36;64.82
56992;BME280;42885;49.754;18.636;2023-12-20T04:23:58;97656.73;;;9.21;65.37
56992;BME280;42885;49.754;18.636;2023-12-20T04:26:29;97653.19;;;9.22;69.14
56992;BME280;42885;49.754;18.636;2023-12-20T04:29:00;97661.17;;;8.99;74.47
56992;BME280;42885;49.754;18.636;2023-12-20T04:31:31;97655.52;;;8.92;78.42
56992;BME280;42885;49.754;18.636;2023-12-20T04:34:03;97651.23;;;8.91;81.22
56992;BME280;42885;49.754;18.636;2023-12-20T04:36:34;97659.06;;;8.91;76.10
56992;BME280;42885;49.754;18.636;2023-12-20T04:39:05;97640.76;;;8.71;80.95
56992;BME280;42885;49.754;18.636;2023-12-20T04:41:38;97631.46;;;8.45;81.50
56992;BME280;42885;49.754;18.636;2023-12-20T04:44:09;97623.06;;;8.47;82.74
56992;BME280;42885;49.754;18.636;2023-12-20T04:46:41;97615.40;;;8.73;81.66
56992;BME280;42885;49.754;18.636;2023-12-20T04:49:13;97607.34;;;8.84;79.35
56992;BME280;42885;49.754;18.636;2023-12-20T04:51:44;97609.41;;;8.86;78.37
56992;BME280;42885;49.754;18.636;2023-12-20T04:54:15;97618.64;;;8.84;79.08
56992;BME280;42885;49.754;18.636;2023-12-20T04:56:47;97620.81;;;9.05;81.60
56992;BME280;42885;49.754;18.636;2023-12-20T04:59:18;97612.02;;;9.13;81.18
56992;BME280;42885;49.754;18.636;2023-12-20T05:01:49;97608.63;;;9.18;81.45
56992;BME280;42885;49.754;18.636;2023-12-20T05:04:20;97614.95;;;9.01;81.16
56992;BME280;42885;49.754;18.636;2023-12-20T05:06:51;97616.08;;;8.97;81.38
56992;BME280;42885;49.754;18.636;2023-12-20T05:09:22;97618.81;;;8.53;83.78
56992;BME280;42885;49.754;18.636;2023-12-20T05:11:53;97620.22;;;8.23;86.16
56992;BME280;42885;49.754;18.636;2023-12-20T05:14:25;97620.02;;;8.26;86.60
56992;BME280;42885;49.754;18.636;2023-12-20T05:16:56;97613.14;;;8.25;85.88
56992;BME280;42885;49.754;18.636;2023-12-20T05:19:28;97604.38;;;8.19;85.36
56992;BME280;42885;49.754;18.636;2023-12-20T05:22:00;97604.74;;;8.34;85.09
56992;BME280;42885;49.754;18.636;2023-12-20T05:24:31;97611.38;;;8.18;86.71
56992;BME280;42885;49.754;18.636;2023-12-20T05:27:02;97608.94;;;8.15;86.98
56992;BME280;42885;49.754;18.636;2023-12-20T05:29:34;97607.84;;;8.19;86.99
56992;BME280;42885;49.754;18.636;2023-12-20T05:32:05;97609.09;;;8.41;85.67
56992;BME280;42885;49.754;18.636;2023-12-20T05:34:37;97596.43;;;8.42;86.56
56992;BME280;42885;49.754;18.636;2023-12-20T05:37:08;97589.73;;;8.45;87.83
56992;BME280;42885;49.754;18.636;2023-12-20T05:39:40;97593.81;;;8.64;88.35
56992;BME280;42885;49.754;18.636;2023-12-20T05:42:11;97598.65;;;8.70;89.76
56992;BME280;42885;49.754;18.636;2023-12-20T05:44:42;97607.00;;;8.75;89.66
56992;BME280;42885;49.754;18.636;2023-12-20T05:47:13;97613.99;;;8.82;90.99
56992;BME280;42885;49.754;18.636;2023-12-20T05:49:45;97618.64;;;8.84;91.50
56992;BME280;42885;49.754;18.636;2023-12-20T05:52:16;97614.01;;;8.75;93.45
56992;BME280;42885;49.754;18.636;2023-12-20T05:54:48;97616.88;;;8.85;93.36
56992;BME280;42885;49.754;18.636;2023-12-20T05:57:19;97624.06;;;8.81;94.03
56992;BME280;42885;49.754;18.636;2023-12-20T05:59:50;97625.10;;;8.71;95.61
56992;BME280;42885;49.754;18.636;2023-12-20T06:02:22;97639.47;;;8.57;96.82
56992;BME280;42885;49.754;18.636;2023-12-20T06:04:53;97645.64;;;8.26;97.92
56992;BME280;42885;49.754;18.636;2023-12-20T06:07:25;97649.34;;;8.22;99.66
56992;BME280;42885;49.754;18.636;2023-12-20T06:09:56;97646.28;;;8.16;100.00
56992;BME280;42885;49.754;18.636;2023-12-20T06:12:28;97642.46;;;8.21;100.00
56992;BME280;42885;49.754;18.636;2023-12-20T06:15:00;97652.44;;;8.22;100.00
56992;BME280;42885;49.754;18.636;2023-12-20T06:17:32;97650.65;;;8.30;100.00
56992;BME280;42885;49.754;18.636;2023-12-20T06:20:06;97646.73;;;8.15;100.00
56992;BME280;42885;49.754;18.636;2023-12-20T06:22:38;97650.19;;;8.08;100.00
56992;BME280;42885;49.754;18.636;2023-12-20T06:25:09;97656.42;;;8.13;100.00
56992;BME280;42885;49.754;18.636;2023-12-20T06:27:40;97662.64;;;8.03;100.00
56992;BME280;42885;49.754;18.636;2023-12-20T06:30:11;97665.34;;;8.16;100.00
56992;BME280;42885;49.754;18.636;2023-12-20T06:32:43;97673.08;;;7.58;100.00
56992;BME280;42885;49.754;18.636;2023-12-20T06:35:16;97673.33;;;7.77;100.00
56992;BME280;42885;49.754;18.636;2023-12-20T06:37:47;97666.91;;;7.82;100.00
56992;BME280;42885;49.754;18.636;2023-12-20T06:40:19;97662.27;;;7.95;100.00
56992;BME280;42885;49.754;18.636;2023-12-20T06:42:50;97676.87;;;7.90;100.00
56992;BME280;42885;49.754;18.636;2023-12-20T06:45:22;97673.86;;;7.75;100.00
56992;BME280;42885;49.754;18.636;2023-12-20T06:47:53;97668.31;;;7.88;100.00
56992;BME280;42885;49.754;18.636;2023-12-20T06:50:25;97668.77;;;7.88;100.00
56992;BME280;42885;49.754;18.636;2023-12-20T06:52:56;97668.77;;;7.88;100.00
56992;BME280;42885;49.754;18.636;2023-12-20T06:55:27;97676.33;;;8.07;100.00
56992;BME280;42885;49.754;18.636;2023-12-20T06:58:00;97667.12;;;8.01;100.00
56992;BME280;42885;49.754;18.636;2023-12-20T07:00:32;97674.22;;;8.13;100.00
56992;BME280;42885;49.754;18.636;2023-12-20T07:03:04;97684.73;;;8.12;100.00
56992;BME280;42885;49.754;18.636;2023-12-20T07:05:36;97681.46;;;8.08;100.00
56992;BME280;42885;49.754;18.636;2023-12-20T07:08:08;97689.48;;;8.05;100.00
56992;BME280;42885;49.754;18.636;2023-12-20T07:10:41;97698.30;;;7.95;100.00
56992;BME280;42885;49.754;18.636;2023-12-20T07:13:12;97691.13;;;7.99;100.00
56992;BME280;42885;49.754;18.636;2023-12-20T07:15:44;97695.88;;;8.07;100.00
56992;BME280;42885;49.754;18.636;2023-12-20T07:18:15;97692.16;;;8.04;100.00
56992;BME280;42885;49.754;18.636;2023-12-20T07:20:47;97690.57;;;8.01;100.00
56992;BME280;42885;49.754;18.636;2023-12-20T07:23:18;97690.81;;;7.82;100.00
56992;BME280;42885;49.754;18.636;2023-12-20T07:25:51;97686.73;;;7.92;100.00
56992;BME280;42885;49.754;18.636;2023-12-20T07:28:22;97693.38;;;7.98;100.00
56992;BME280;42885;49.754;18.636;2023-12-20T07:30:54;97700.94;;;7.79;100.00
56992;BME280;42885;49.754;18.636;2023-12-20T07:33:26;97699.95;;;7.89;100.00
56992;BME280;42885;49.754;18.636;2023-12-20T07:35:59;97698.63;;;7.82;100.00
56992;BME280;42885;49.754;18.636;2023-12-20T07:38:30;97710.58;;;7.93;100.00
56992;BME280;42885;49.754;18.636;2023-12-20T07:41:02;97708.25;;;8.03;100.00
56992;BME280;42885;49.754;18.636;2023-12-20T07:43:33;97718.87;;;8.00;100.00
56992;BME280;42885;49.754;18.636;2023-12-20T07:46:08;97712.14;;;7.96;100.00
56992;BME280;42885;49.754;18.636;2023-12-20T07:48:40;97711.11;;;7.91;100.00
56992;BME280;42885;49.754;18.636;2023-12-20T07:51:12;97715.95;;;7.90;100.00
56992;BME280;42885;49.754;18.636;2023-12-20T07:53:43;97717.44;;;7.87;100.00
56992;BME280;42885;49.754;18.636;2023-12-20T07:56:16;97723.31;;;7.91;100.00
56992;BME280;42885;49.754;18.636;2023-12-20T07:58:47;97719.09;;;7.81;100.00
56992;BME280;42885;49.754;18.636;2023-12-20T08:01:20;97712.69;;;7.87;100.00
56992;BME280;42885;49.754;18.636;2023-12-20T08:03:51;97701.50;;;7.77;100.00
56992;BME280;42885;49.754;18.636;2023-12-20T08:06:23;97711.88;;;7.93;100.00
56992;BME280;42885;49.754;18.636;2023-12-20T08:08:55;97709.39;;;7.76;100.00
56992;BME280;42885;49.754;18.636;2023-12-20T08:11:26;97704.95;;;7.78;100.00
56992;BME280;42885;49.754;18.636;2023-12-20T08:13:57;97709.88;;;7.75;100.00
56992;BME280;42885;49.754;18.636;2023-12-20T08:16:28;97701.34;;;7.80;100.00
56992;BME280;42885;49.754;18.636;2023-12-20T08:19:00;97694.54;;;7.78;100.00
56992;BME280;42885;49.754;18.636;2023-12-20T08:21:31;97708.75;;;7.79;100.00
56992;BME280;42885;49.754;18.636;2023-12-20T08:24:03;97696.65;;;7.64;100.00
56992;BME280;42885;49.754;18.636;2023-12-20T08:26:35;97704.27;;;7.67;100.00
56992;BME280;42885;49.754;18.636;2023-12-20T08:29:06;97707.54;;;7.70;100.00
56992;BME280;42885;49.754;18.636;2023-12-20T08:31:37;97708.11;;;7.83;100.00
56992;BME280;42885;49.754;18.636;2023-12-20T08:34:09;97704.38;;;7.73;100.00
56992;BME280;42885;49.754;18.636;2023-12-20T08:36:42;97697.28;;;8.20;100.00
56992;BME280;42885;49.754;18.636;2023-12-20T08:39:14;97706.11;;;7.95;100.00
56992;BME280;42885;49.754;18.636;2023-12-20T08:41:46;97714.80;;;7.73;100.00
56992;BME280;42885;49.754;18.636;2023-12-20T08:44:17;97718.12;;;7.60;100.00
56992;BME280;42885;49.754;18.636;2023-12-20T08:46:49;97707.25;;;7.68;100.00
56992;BME280;42885;49.754;18.636;2023-12-20T08:49:20;97710.14;;;7.70;100.00
56992;BME280;42885;49.754;18.636;2023-12-20T08:51:52;97719.65;;;8.24;100.00
56992;BME280;42885;49.754;18.636;2023-12-20T08:54:24;97718.88;;;8.07;100.00
56992;BME280;42885;49.754;18.636;2023-12-20T08:56:55;97720.95;;;7.79;100.00
56992;BME280;42885;49.754;18.636;2023-12-20T08:59:27;97721.78;;;7.72;100.00
56992;BME280;42885;49.754;18.636;2023-12-20T09:01:58;97732.36;;;7.69;100.00
56992;BME280;42885;49.754;18.636;2023-12-20T09:04:30;97731.19;;;7.51;100.00
56992;BME280;42885;49.754;18.636;2023-12-20T09:07:01;97728.66;;;7.50;100.00
56992;BME280;42885;49.754;18.636;2023-12-20T09:09:32;97731.35;;;7.71;100.00
56992;BME280;42885;49.754;18.636;2023-12-20T09:12:05;97726.14;;;7.71;100.00
56992;BME280;42885;49.754;18.636;2023-12-20T09:14:36;97721.13;;;7.68;100.00
56992;BME280;42885;49.754;18.636;2023-12-20T09:17:07;97721.13;;;7.68;100.00
56992;BME280;42885;49.754;18.636;2023-12-20T09:19:39;97722.53;;;7.74;100.00
56992;BME280;42885;49.754;18.636;2023-12-20T09:22:10;97725.27;;;7.56;100.00
56992;BME280;42885;49.754;18.636;2023-12-20T09:24:42;97730.73;;;7.59;100.00
56992;BME280;42885;49.754;18.636;2023-12-20T09:27:13;97733.27;;;7.37;100.00
56992;BME280;42885;49.754;18.636;2023-12-20T09:29:45;97726.50;;;7.42;100.00
56992;BME280;42885;49.754;18.636;2023-12-20T09:32:18;97724.44;;;7.63;100.00
56992;BME280;42885;49.754;18.636;2023-12-20T09:34:50;97717.75;;;7.66;100.00
56992;BME280;42885;49.754;18.636;2023-12-20T09:37:22;97718.30;;;7.64;100.00
56992;BME280;42885;49.754;18.636;2023-12-20T09:39:53;97718.12;;;7.60;100.00
56992;BME280;42885;49.754;18.636;2023-12-20T09:42:35;97719.84;;;7.52;100.00
56992;BME280;42885;49.754;18.636;2023-12-20T09:45:02;97713.81;;;7.52;100.00
56992;BME280;42885;49.754;18.636;2023-12-20T09:47:35;97713.73;;;7.61;100.00
56992;BME280;42885;49.754;18.636;2023-12-20T09:50:07;97714.34;;;7.73;100.00
56992;BME280;42885;49.754;18.636;2023-12-20T09:52:39;97711.72;;;7.66;100.00
56992;BME280;42885;49.754;18.636;2023-12-20T09:55:10;97703.39;;;7.59;100.00
56992;BME280;42885;49.754;18.636;2023-12-20T09:57:41;97703.95;;;7.57;100.00
56992;BME280;42885;49.754;18.636;2023-12-20T10:00:13;97697.89;;;7.49;100.00
56992;BME280;42885;49.754;18.636;2023-12-20T10:05:29;97702.84;;;7.54;100.00
56992;BME280;42885;49.754;18.636;2023-12-20T10:08:01;97696.70;;;7.55;100.00
56992;BME280;42885;49.754;18.636;2023-12-20T10:10:33;97691.06;;;7.70;100.00
56992;BME280;42885;49.754;18.636;2023-12-20T10:13:09;97696.09;;;7.66;100.00
56992;BME280;42885;49.754;18.636;2023-12-20T10:15:41;97689.87;;;7.68;100.00
56992;BME280;42885;49.754;18.636;2023-12-20T10:18:13;97695.20;;;7.58;100.00
56992;BME280;42885;49.754;18.636;2023-12-20T10:20:45;97692.60;;;7.58;100.00
56992;BME280;42885;49.754;18.636;2023-12-20T10:23:17;97693.95;;;7.73;100.00
56992;BME280;42885;49.754;18.636;2023-12-20T10:25:57;97697.28;;;7.60;100.00
56992;BME280;42885;49.754;18.636;2023-12-20T10:28:32;97694.86;;;7.64;100.00
56992;BME280;42885;49.754;18.636;2023-12-20T10:31:04;97699.75;;;7.78;100.00
56992;BME280;42885;49.754;18.636;2023-12-20T10:33:35;97705.48;;;7.76;100.00
56992;BME280;42885;49.754;18.636;2023-12-20T10:36:07;97697.73;;;7.60;100.00
56992;BME280;42885;49.754;18.636;2023-12-20T10:38:40;97694.81;;;7.73;100.00
56992;BME280;42885;49.754;18.636;2023-12-20T10:41:13;97693.61;;;7.79;100.00
56992;BME280;42885;49.754;18.636;2023-12-20T10:43:47;97692.74;;;7.64;100.00
56992;BME280;42885;49.754;18.636;2023-12-20T10:46:20;97691.94;;;7.78;100.00
56992;BME280;42885;49.754;18.636;2023-12-20T10:48:59;97698.11;;;8.06;100.00
56992;BME280;42885;49.754;18.636;2023-12-20T10:51:25;97698.02;;;8.00;100.00
56992;BME280;42885;49.754;18.636;2023-12-20T10:53:57;97699.37;;;7.84;100.00
56992;BME280;42885;49.754;18.636;2023-12-20T10:56:32;97693.08;;;7.95;100.00
56992;BME280;42885;49.754;18.636;2023-12-20T10:59:05;97687.11;;;7.86;100.00
56992;BME280;42885;49.754;18.636;2023-12-20T11:01:40;97696.78;;;7.91;100.00
56992;BME280;42885;49.754;18.636;2023-12-20T11:04:15;97691.47;;;7.85;100.00
56992;BME280;42885;49.754;18.636;2023-12-20T11:06:49;97692.69;;;7.87;100.00
56992;BME280;42885;49.754;18.636;2023-12-20T11:09:26;97695.20;;;7.96;100.00
56992;BME280;42885;49.754;18.636;2023-12-20T11:12:09;97688.95;;;7.84;100.00
56992;BME280;42885;49.754;18.636;2023-12-20T11:14:46;97696.88;;;7.82;100.00
56992;BME280;42885;49.754;18.636;2023-12-20T11:17:18;97688.77;;;7.80;100.00
56992;BME280;42885;49.754;18.636;2023-12-20T11:22:32;97692.95;;;7.75;100.00
56992;BME280;42885;49.754;18.636;2023-12-20T11:25:06;97693.90;;;7.81;100.00
56992;BME280;42885;49.754;18.636;2023-12-20T11:27:43;97687.81;;;7.74;100.00
56992;BME280;42885;49.754;18.636;2023-12-20T11:30:15;97685.01;;;7.62;100.00
56992;BME280;42885;49.754;18.636;2023-12-20T11:32:47;97685.38;;;7.63;100.00
56992;BME280;42885;49.754;18.636;2023-12-20T11:35:19;97679.16;;;7.66;100.00
56992;BME280;42885;49.754;18.636;2023-12-20T11:37:51;97683.48;;;7.81;100.00
56992;BME280;42885;49.754;18.636;2023-12-20T11:40:23;97671.80;;;7.65;100.00
56992;BME280;42885;49.754;18.636;2023-12-20T11:42:55;97676.67;;;7.79;100.00
56992;BME280;42885;49.754;18.636;2023-12-20T11:45:27;97669.80;;;7.78;100.00
56992;BME280;42885;49.754;18.636;2023-12-20T11:47:59;97669.02;;;7.61;100.00
56992;BME280;42885;49.754;18.636;2023-12-20T11:50:30;97659.47;;;7.83;100.00
56992;BME280;42885;49.754;18.636;2023-12-20T11:53:01;97656.02;;;7.90;100.00
56992;BME280;42885;49.754;18.636;2023-12-20T11:55:34;97663.28;;;7.92;100.00
56992;BME280;42885;49.754;18.636;2023-12-20T11:58:06;97673.08;;;7.89;100.00
56992;BME280;42885;49.754;18.636;2023-12-20T12:00:39;97674.58;;;8.07;100.00
56992;BME280;42885;49.754;18.636;2023-12-20T12:03:14;97677.99;;;7.86;100.00
56992;BME280;42885;49.754;18.636;2023-12-20T12:05:47;97675.21;;;7.96;100.00
56992;BME280;42885;49.754;18.636;2023-12-20T12:08:19;97674.25;;;7.83;100.00
56992;BME280;42885;49.754;18.636;2023-12-20T12:10:50;97681.19;;;8.13;100.00
56992;BME280;42885;49.754;18.636;2023-12-20T12:13:22;97675.28;;;7.88;100.00
56992;BME280;42885;49.754;18.636;2023-12-20T12:15:53;97680.94;;;7.73;100.00
56992;BME280;42885;49.754;18.636;2023-12-20T12:18:25;97681.53;;;7.85;100.00
56992;BME280;42885;49.754;18.636;2023-12-20T12:21:02;97673.54;;;7.95;100.00
56992;BME280;42885;49.754;18.636;2023-12-20T12:23:33;97677.45;;;7.95;100.00
56992;BME280;42885;49.754;18.636;2023-12-20T12:26:05;97674.64;;;7.98;100.00
56992;BME280;42885;49.754;18.636;2023-12-20T12:28:41;97662.02;;;8.21;100.00
56992;BME280;42885;49.754;18.636;2023-12-20T12:31:15;97673.00;;;8.12;100.00
56992;BME280;42885;49.754;18.636;2023-12-20T12:33:47;97674.00;;;8.02;100.00
56992;BME280;42885;49.754;18.636;2023-12-20T12:36:19;97669.66;;;8.10;100.00
56992;BME280;42885;49.754;18.636;2023-12-20T12:38:51;97671.48;;;8.08;100.00
56992;BME280;42885;49.754;18.636;2023-12-20T12:41:22;97668.33;;;8.24;100.00
56992;BME280;42885;49.754;18.636;2023-12-20T12:43:53;97662.89;;;7.84;100.00
56992;BME280;42885;49.754;18.636;2023-12-20T12:46:25;97659.91;;;7.76;100.00
56992;BME280;42885;49.754;18.636;2023-12-20T12:48:56;97655.75;;;7.80;100.00
56992;BME280;42885;49.754;18.636;2023-12-20T12:51:27;97643.76;;;7.85;100.00
56992;BME280;42885;49.754;18.636;2023-12-20T12:53:58;97646.09;;;7.90;100.00
56992;BME280;42885;49.754;18.636;2023-12-20T12:56:31;97649.70;;;7.87;100.00
56992;BME280;42885;49.754;18.636;2023-12-20T12:59:02;97644.48;;;7.80;100.00
56992;BME280;42885;49.754;18.636;2023-12-20T13:01:33;97642.81;;;7.79;100.00
56992;BME280;42885;49.754;18.636;2023-12-20T13:04:05;97652.39;;;7.85;100.00
56992;BME280;42885;49.754;18.636;2023-12-20T13:06:38;97651.63;;;7.69;100.00
56992;BME280;42885;49.754;18.636;2023-12-20T13:09:11;97650.05;;;7.74;100.00
56992;BME280;42885;49.754;18.636;2023-12-20T13:11:42;97652.10;;;7.83;100.00
56992;BME280;42885;49.754;18.636;2023-12-20T13:14:13;97651.83;;;7.73;100.00
56992;BME280;42885;49.754;18.636;2023-12-20T13:16:46;97652.30;;;7.80;100.00
56992;BME280;42885;49.754;18.636;2023-12-20T13:19:17;97652.86;;;7.78;100.00
56992;BME280;42885;49.754;18.636;2023-12-20T13:21:48;97651.73;;;7.82;100.00